createdAt,value
2022-08-17T00:00:43.993Z,98952.94
2022-08-17T00:03:14.439Z,98947.97
2022-08-17T00:05:44.291Z,98947.97
2022-08-17T00:08:14.295Z,98945.81
2022-08-17T00:10:44.450Z,98951.06
2022-08-17T00:13:17.313Z,98950.56
2022-08-17T00:15:45.900Z,98948.63
2022-08-17T00:18:58.391Z,98947.84
2022-08-17T00:21:04.723Z,98948.25
2022-08-17T00:23:39.672Z,98950.56
2022-08-17T00:26:34.874Z,98954.63
2022-08-17T00:29:07.370Z,98951.22
2022-08-17T00:31:37.020Z,98951.50
2022-08-17T00:34:06.222Z,98952.72
2022-08-17T00:36:34.544Z,98945.12
2022-08-17T00:39:02.972Z,98945.03
2022-08-17T00:41:35.761Z,98943.94
2022-08-17T00:44:05.197Z,98946.25
2022-08-17T00:46:34.871Z,98954.44
2022-08-17T00:49:03.326Z,98949.25
2022-08-17T00:51:32.412Z,98957.56
2022-08-17T00:54:05.762Z,98953.09
2022-08-17T00:56:36.141Z,98951.78
2022-08-17T00:59:05.458Z,98953.50
2022-08-17T01:01:33.972Z,98956.37
2022-08-17T01:04:02.386Z,98949.16
2022-08-17T01:06:30.986Z,98956.28
2022-08-17T01:08:59.661Z,98954.47
2022-08-17T01:11:28.043Z,98964.13
2022-08-17T01:13:58.014Z,98961.47
2022-08-17T01:16:27.395Z,98969.66
2022-08-17T01:18:56.891Z,98969.34
2022-08-17T01:21:28.615Z,98970.47
2022-08-17T01:23:58.409Z,98973.41
2022-08-17T01:26:27.120Z,98969.97
2022-08-17T01:28:56.005Z,98967.41
2022-08-17T01:31:25.621Z,98976.47
2022-08-17T01:33:54.616Z,98979.59
2022-08-17T01:36:23.092Z,98982.06
2022-08-17T01:38:51.476Z,98975.62
2022-08-17T01:41:24.197Z,98977.28
2022-08-17T01:43:53.795Z,98972.72
2022-08-17T01:46:23.237Z,98975.62
2022-08-17T01:48:51.715Z,98984.16
2022-08-17T01:51:20.429Z,98984.38
2022-08-17T01:53:50.164Z,98979.06
2022-08-17T01:56:19.925Z,98989.91
2022-08-17T01:58:50.151Z,98972.94
2022-08-17T02:01:19.157Z,98979.47
2022-08-17T02:03:56.121Z,98976.97
2022-08-17T02:06:30.042Z,98978.63
2022-08-17T02:09:03.271Z,98977.66
2022-08-17T02:11:32.381Z,98973.13
2022-08-17T02:14:04.052Z,98968.66
2022-08-17T02:16:36.828Z,98968.31
2022-08-17T02:19:07.290Z,98970.84
2022-08-17T02:21:36.097Z,98957.00
2022-08-17T02:24:04.867Z,98960.62
2022-08-17T02:26:33.477Z,98965.19
2022-08-17T02:29:04.152Z,98965.41
2022-08-17T02:31:34.956Z,98962.97
2022-08-17T02:34:05.006Z,98956.25
2022-08-17T02:36:34.371Z,98968.78
2022-08-17T02:39:02.994Z,98966.16
2022-08-17T02:41:31.310Z,98968.28
2022-08-17T02:43:59.953Z,98972.87
2022-08-17T02:46:30.535Z,98968.56
2022-08-17T02:48:58.905Z,98966.50
2022-08-17T02:51:27.702Z,98963.22
2022-08-17T02:54:03.909Z,98970.94
2022-08-17T02:56:44.948Z,98964.69
2022-08-17T02:59:13.489Z,98968.78
2022-08-17T03:01:43.305Z,98965.28
2022-08-17T03:04:11.975Z,98960.72
2022-08-17T03:06:40.307Z,98973.69
2022-08-17T03:09:08.901Z,98968.19
2022-08-17T03:11:37.593Z,98976.19
2022-08-17T03:14:05.911Z,98973.91
2022-08-17T03:16:34.212Z,98976.06
2022-08-17T03:19:05.725Z,98976.78
2022-08-17T03:21:34.075Z,98980.41
2022-08-17T03:24:02.705Z,98975.69
2022-08-17T03:26:37.594Z,98974.25
2022-08-17T03:29:06.222Z,98975.31
2022-08-17T03:31:34.554Z,98974.25
2022-08-17T03:34:07.606Z,98977.78
2022-08-17T03:36:36.212Z,98981.31
2022-08-17T03:39:04.699Z,98982.78
2022-08-17T03:41:33.533Z,98977.78
2022-08-17T03:44:01.874Z,98992.75
2022-08-17T03:46:47.655Z,98980.56
2022-08-17T03:49:35.187Z,98989.56
2022-08-17T03:52:20.943Z,98987.78
2022-08-17T03:55:07.405Z,98998.56
2022-08-17T03:57:36.877Z,98995.41
2022-08-17T04:00:06.044Z,98993.34
2022-08-17T04:02:40.454Z,98991.09
2022-08-17T04:05:10.785Z,98990.62
2022-08-17T04:07:39.120Z,98989.69
2022-08-17T04:10:08.042Z,98994.00
2022-08-17T04:12:44.620Z,98999.75
2022-08-17T04:15:13.904Z,99001.09
2022-08-17T04:17:44.281Z,99012.91
2022-08-17T04:20:15.145Z,99008.44
2022-08-17T04:22:56.111Z,99008.78
2022-08-17T04:25:25.513Z,99006.97
2022-08-17T04:27:54.132Z,99011.00
2022-08-17T04:30:22.672Z,99007.94
2022-08-17T04:33:04.552Z,99007.94
2022-08-17T04:35:37.898Z,99008.72
2022-08-17T04:38:07.682Z,99006.06
2022-08-17T04:40:54.456Z,99009.78
2022-08-17T04:43:24.893Z,99019.78
2022-08-17T04:45:55.496Z,99014.03
2022-08-17T04:48:36.532Z,99017.63
2022-08-17T04:51:10.514Z,99017.16
2022-08-17T04:53:39.763Z,99021.06
2022-08-17T04:56:16.077Z,99018.41
2022-08-17T04:58:45.666Z,99033.31
2022-08-17T05:01:14.361Z,99028.94
2022-08-17T05:03:42.929Z,99029.97
2022-08-17T05:06:12.629Z,99034.06
2022-08-17T05:08:41.312Z,99029.25
2022-08-17T05:11:09.644Z,99038.25
2022-08-17T05:13:38.037Z,99044.00
2022-08-17T05:16:09.102Z,99047.47
2022-08-17T05:18:38.934Z,99049.91
2022-08-17T05:21:07.796Z,99047.59
2022-08-17T05:23:42.844Z,99047.34
2022-08-17T05:26:19.819Z,99048.13
2022-08-17T05:28:57.221Z,99039.28
2022-08-17T05:31:28.770Z,99053.72
2022-08-17T05:33:57.214Z,99048.41
2022-08-17T05:36:42.446Z,99052.53
2022-08-17T05:39:16.707Z,99052.28
2022-08-17T05:41:46.658Z,99054.63
2022-08-17T05:44:15.284Z,99044.09
2022-08-17T05:46:45.303Z,99049.94
2022-08-17T05:49:15.359Z,99051.84
2022-08-17T05:51:48.753Z,99052.03
2022-08-17T05:54:33.900Z,99047.22
2022-08-17T05:57:09.339Z,99054.03
2022-08-17T05:59:40.518Z,99054.91
2022-08-17T06:02:11.695Z,99053.75
2022-08-17T06:04:45.662Z,99046.53
2022-08-17T06:07:15.613Z,99053.09
2022-08-17T06:09:47.073Z,99051.03
2022-08-17T06:12:34.396Z,99056.25
2022-08-17T06:15:07.472Z,99057.94
2022-08-17T06:17:35.835Z,99053.06
2022-08-17T06:20:07.003Z,99057.84
2022-08-17T06:22:37.398Z,99054.84
2022-08-17T06:25:10.057Z,99050.97
2022-08-17T06:27:39.801Z,99056.97
2022-08-17T06:30:09.949Z,99055.97
2022-08-17T06:32:39.110Z,99052.34
2022-08-17T06:35:08.624Z,99051.94
2022-08-17T06:37:48.952Z,99057.69
2022-08-17T06:40:23.576Z,99063.53
2022-08-17T06:43:05.595Z,99067.59
2022-08-17T06:45:37.094Z,99071.66
2022-08-17T06:48:07.520Z,99076.13
2022-08-17T06:50:37.639Z,99078.09
2022-08-17T06:53:06.968Z,99082.00
2022-08-17T06:55:38.526Z,99085.16
2022-08-17T06:58:15.891Z,99075.56
2022-08-17T07:00:46.166Z,99076.50
2022-08-17T07:03:16.404Z,99079.25
2022-08-17T07:05:45.963Z,99083.53
2022-08-17T07:08:18.629Z,99079.41
2022-08-17T07:10:50.300Z,99083.38
2022-08-17T07:13:25.538Z,99083.88
2022-08-17T07:15:57.205Z,99081.75
2022-08-17T07:18:26.561Z,99079.63
2022-08-17T07:20:56.259Z,99073.88
2022-08-17T07:23:26.703Z,99079.37
2022-08-17T07:25:58.114Z,99079.37
2022-08-17T07:28:27.190Z,99076.19
2022-08-17T07:30:55.715Z,99077.97
2022-08-17T07:33:25.767Z,99078.16
2022-08-17T07:35:54.667Z,99074.06
2022-08-17T07:38:26.841Z,99081.47
2022-08-17T07:41:05.223Z,99079.47
2022-08-17T07:43:33.943Z,99070.44
2022-08-17T07:46:25.266Z,99076.25
2022-08-17T07:48:54.531Z,99077.53
2022-08-17T07:51:27.809Z,99077.13
2022-08-17T07:54:13.091Z,99074.22
2022-08-17T07:56:46.012Z,99072.91
2022-08-17T07:59:18.099Z,99077.44
2022-08-17T08:02:03.569Z,99081.75
2022-08-17T08:04:59.282Z,99085.31
2022-08-17T08:07:25.722Z,99089.88
2022-08-17T08:10:01.338Z,99082.69
2022-08-17T08:12:33.809Z,99085.72
2022-08-17T08:15:04.688Z,99080.59
2022-08-17T08:17:35.781Z,99079.59
2022-08-17T08:20:51.080Z,99088.63
2022-08-17T08:22:57.538Z,99078.41
2022-08-17T08:25:28.828Z,99081.78
2022-08-17T08:28:10.975Z,99085.94
2022-08-17T08:30:42.576Z,99081.25
2022-08-17T08:33:29.470Z,99078.06
2022-08-17T08:35:59.903Z,99081.94
2022-08-17T08:38:30.909Z,99076.41
2022-08-17T08:41:02.801Z,99080.25
2022-08-17T08:43:36.433Z,99078.09
2022-08-17T08:46:06.390Z,99085.63
2022-08-17T08:48:58.207Z,99073.41
2022-08-17T08:51:31.211Z,99070.38
2022-08-17T08:54:01.084Z,99068.00
2022-08-17T08:56:32.696Z,99067.66
2022-08-17T08:59:03.570Z,99061.94
2022-08-17T09:01:34.815Z,99072.34
2022-08-17T09:04:25.274Z,99065.28
2022-08-17T09:07:01.499Z,99066.50
2022-08-17T09:09:36.854Z,99064.19
2022-08-17T09:12:09.042Z,99072.19
2022-08-17T09:14:45.073Z,99070.25
2022-08-17T09:17:18.323Z,99068.00
2022-08-17T09:19:47.920Z,99079.91
2022-08-17T09:22:21.479Z,99082.38
2022-08-17T09:24:50.551Z,99082.34
2022-08-17T09:27:19.922Z,99077.78
2022-08-17T09:29:50.902Z,99078.41
2022-08-17T09:32:20.766Z,99080.94
2022-08-17T09:34:50.913Z,99080.66
2022-08-17T09:37:22.899Z,99077.78
2022-08-17T09:39:52.927Z,99086.50
2022-08-17T09:42:23.613Z,99075.59
2022-08-17T09:44:55.433Z,99072.50
2022-08-17T09:47:26.359Z,99074.62
2022-08-17T09:49:55.334Z,99071.97
2022-08-17T09:52:24.833Z,99071.25
2022-08-17T09:54:53.732Z,99062.59
2022-08-17T09:57:30.226Z,99066.66
2022-08-17T10:00:18.793Z,99070.53
2022-08-17T10:02:56.053Z,99066.66
2022-08-17T10:05:25.940Z,99068.28
2022-08-17T10:07:56.463Z,99067.34
2022-08-17T10:10:26.660Z,99072.69
2022-08-17T10:12:56.655Z,99065.69
2022-08-17T10:15:27.600Z,99074.81
2022-08-17T10:18:21.371Z,99074.06
2022-08-17T10:21:13.699Z,99071.50
2022-08-17T10:23:59.750Z,99072.16
2022-08-17T10:26:28.517Z,99075.31
2022-08-17T10:29:16.892Z,99071.53
2022-08-17T10:31:46.193Z,99065.22
2022-08-17T10:34:23.019Z,99057.38
2022-08-17T10:36:54.756Z,99059.56
2022-08-17T10:39:25.613Z,99062.34
2022-08-17T10:41:54.898Z,99065.41
2022-08-17T10:44:38.282Z,99063.28
2022-08-17T10:47:09.849Z,99067.00
2022-08-17T10:49:44.276Z,99063.63
2022-08-17T10:52:27.804Z,99061.97
2022-08-17T10:55:12.157Z,99057.47
2022-08-17T10:57:41.940Z,99055.59
2022-08-17T11:00:27.899Z,99054.81
2022-08-17T11:02:57.552Z,99050.84
2022-08-17T11:05:44.379Z,99051.97
2022-08-17T11:08:23.420Z,99053.66
2022-08-17T11:10:59.343Z,99053.81
2022-08-17T11:13:31.104Z,99039.50
2022-08-17T11:16:08.105Z,99047.91
2022-08-17T11:18:52.654Z,99049.06
2022-08-17T11:21:39.309Z,99056.91
2022-08-17T11:24:18.386Z,99048.69
2022-08-17T11:27:01.394Z,99046.94
2022-08-17T11:29:31.397Z,99047.13
2022-08-17T11:32:02.172Z,99041.97
2022-08-17T11:34:31.725Z,99033.22
2022-08-17T11:37:05.726Z,99038.59
2022-08-17T11:39:52.368Z,99031.91
2022-08-17T11:42:30.648Z,99032.06
2022-08-17T11:44:59.899Z,99034.94
2022-08-17T11:48:08.982Z,99032.44
2022-08-17T11:50:56.462Z,99030.44
2022-08-17T11:53:43.940Z,99021.09
2022-08-17T11:56:13.326Z,99016.75
2022-08-17T11:58:43.373Z,99023.78
2022-08-17T12:01:13.684Z,99016.03
2022-08-17T12:03:54.166Z,99018.63
2022-08-17T12:06:32.367Z,99010.75
2022-08-17T12:09:02.922Z,99012.22
2022-08-17T12:11:55.541Z,99008.22
2022-08-17T12:14:40.155Z,99003.84
2022-08-17T12:17:22.463Z,99005.03
2022-08-17T12:20:12.173Z,99001.97
2022-08-17T12:22:43.486Z,99002.69
2022-08-17T12:25:12.766Z,98993.94
2022-08-17T12:28:04.853Z,98992.25
2022-08-17T12:30:35.766Z,98991.53
2022-08-17T12:33:04.071Z,98988.81
2022-08-17T12:35:34.542Z,98990.28
2022-08-17T12:38:03.138Z,98990.44
2022-08-17T12:40:32.481Z,98985.59
2022-08-17T12:43:01.563Z,98985.59
2022-08-17T12:45:30.870Z,98986.97
2022-08-17T12:48:07.708Z,98993.50
2022-08-17T12:50:37.173Z,98990.50
2022-08-17T12:53:06.430Z,98977.13
2022-08-17T12:55:36.176Z,98981.16
2022-08-17T12:58:04.802Z,98980.31
2022-08-17T13:00:34.738Z,98980.72
2022-08-17T13:03:06.087Z,98987.47
2022-08-17T13:05:36.623Z,98987.53
2022-08-17T13:08:06.064Z,98982.66
2022-08-17T13:10:35.359Z,98981.44
2022-08-17T13:13:05.989Z,98981.53
2022-08-17T13:15:36.892Z,98978.56
2022-08-17T13:18:08.012Z,98984.09
2022-08-17T13:20:36.795Z,98981.28
2022-08-17T13:23:11.992Z,98970.78
2022-08-17T13:25:41.236Z,98974.03
2022-08-17T13:28:17.608Z,98982.56
2022-08-17T13:31:13.316Z,98985.69
2022-08-17T13:33:44.976Z,98972.97
2022-08-17T13:36:19.378Z,98971.50
2022-08-17T13:38:59.895Z,98971.72
2022-08-17T13:41:33.638Z,98973.22
2022-08-17T13:44:02.048Z,98968.38
2022-08-17T13:46:32.153Z,98968.22
2022-08-17T13:49:05.114Z,98965.72
2022-08-17T13:51:35.308Z,98968.53
2022-08-17T13:54:19.383Z,98972.87
2022-08-17T13:56:51.749Z,98962.84
2022-08-17T13:59:53.092Z,98974.41
2022-08-17T14:02:15.611Z,98971.91
2022-08-17T14:04:46.329Z,98965.16
2022-08-17T14:07:28.984Z,98961.69
2022-08-17T14:09:59.137Z,98966.44
2022-08-17T14:12:28.488Z,98976.81
2022-08-17T14:14:57.374Z,98968.38
2022-08-17T14:17:26.365Z,98966.50
2022-08-17T14:19:56.726Z,98957.81
2022-08-17T14:22:27.026Z,98956.87
2022-08-17T14:24:55.659Z,98958.03
2022-08-17T14:27:26.342Z,98957.47
2022-08-17T14:29:54.851Z,98954.72
2022-08-17T14:32:24.829Z,98958.13
2022-08-17T14:34:53.408Z,98958.19
2022-08-17T14:37:26.340Z,98953.84
2022-08-17T14:39:56.300Z,98954.41
2022-08-17T14:42:26.319Z,98955.66
2022-08-17T14:44:55.561Z,98954.69
2022-08-17T14:47:23.913Z,98959.69
2022-08-17T14:49:52.246Z,98949.06
2022-08-17T14:52:24.101Z,98952.44
2022-08-17T14:54:52.934Z,98947.31
2022-08-17T14:57:34.326Z,98944.81
2022-08-17T15:00:03.516Z,98953.31
2022-08-17T15:02:32.200Z,98946.94
2022-08-17T15:05:00.807Z,98942.37
2022-08-17T15:07:31.385Z,98946.59
2022-08-17T15:10:01.473Z,98942.72
2022-08-17T15:12:33.146Z,98946.56
2022-08-17T15:15:04.911Z,98946.31
2022-08-17T15:17:44.503Z,98943.44
2022-08-17T15:20:15.404Z,98942.66
2022-08-17T15:22:45.684Z,98945.12
2022-08-17T15:25:14.574Z,98937.22
2022-08-17T15:27:42.940Z,98952.22
2022-08-17T15:30:11.836Z,98945.50
2022-08-17T15:32:41.172Z,98945.75
2022-08-17T15:35:19.450Z,98945.19
2022-08-17T15:37:58.188Z,98946.63
2022-08-17T15:40:26.752Z,98948.00
2022-08-17T15:42:55.137Z,98950.03
2022-08-17T15:45:24.870Z,98943.09
2022-08-17T15:47:53.436Z,98949.25
2022-08-17T15:50:21.916Z,98942.47
2022-08-17T15:52:55.047Z,98951.66
2022-08-17T15:55:24.828Z,98951.97
2022-08-17T15:57:53.595Z,98952.59
2022-08-17T16:00:28.170Z,98960.31
2022-08-17T16:03:45.049Z,98949.78
2022-08-17T16:05:45.240Z,98945.91
2022-08-17T16:08:20.715Z,98948.47
2022-08-17T16:10:51.202Z,98951.69
2022-08-17T16:13:19.988Z,98953.09
2022-08-17T16:15:56.929Z,98949.47
2022-08-17T16:18:26.559Z,98947.03
2022-08-17T16:20:55.168Z,98945.06
2022-08-17T16:23:23.886Z,98946.91
2022-08-17T16:25:54.516Z,98945.84
2022-08-17T16:28:23.338Z,98943.25
2022-08-17T16:31:08.190Z,98944.13
2022-08-17T16:33:39.376Z,98934.78
2022-08-17T16:36:08.498Z,98939.34
2022-08-17T16:38:37.197Z,98928.13
2022-08-17T16:41:07.116Z,98929.53
2022-08-17T16:43:36.029Z,98925.75
2022-08-17T16:46:04.371Z,98935.31
2022-08-17T16:48:32.686Z,98931.16
2022-08-17T16:51:03.504Z,98932.38
2022-08-17T16:53:32.729Z,98931.88
2022-08-17T16:56:01.339Z,98928.44
2022-08-17T16:58:31.035Z,98936.38
2022-08-17T17:00:59.709Z,98931.00
2022-08-17T17:03:28.864Z,98938.38
2022-08-17T17:06:00.497Z,98936.66
2022-08-17T17:08:32.660Z,98933.03
2022-08-17T17:11:03.951Z,98931.38
2022-08-17T17:13:40.467Z,98942.25
2022-08-17T17:16:13.386Z,98946.72
2022-08-17T17:18:42.722Z,98949.13
2022-08-17T17:21:11.886Z,98937.72
2022-08-17T17:23:42.617Z,98951.25
2022-08-17T17:26:36.141Z,98953.22
2022-08-17T17:29:10.406Z,98959.00
2022-08-17T17:31:40.987Z,98960.19
2022-08-17T17:34:09.294Z,98962.88
2022-08-17T17:36:40.783Z,98961.41
2022-08-17T17:39:11.257Z,98961.66
2022-08-17T17:41:42.454Z,98961.69
2022-08-17T17:44:13.285Z,98967.94
2022-08-17T17:46:47.089Z,98965.44
2022-08-17T17:49:16.964Z,98967.28
2022-08-17T17:52:08.500Z,98976.72
2022-08-17T17:54:40.206Z,98980.37
2022-08-17T17:57:09.855Z,98975.44
2022-08-17T17:59:44.035Z,98978.63
2022-08-17T18:02:36.509Z,98978.44
2022-08-17T18:05:09.531Z,98982.03
2022-08-17T18:07:39.215Z,98982.84
2022-08-17T18:10:19.497Z,98987.25
2022-08-17T18:12:59.884Z,98985.56
2022-08-17T18:15:31.498Z,98991.00
2022-08-17T18:18:00.673Z,98996.94
2022-08-17T18:20:43.134Z,98994.97
2022-08-17T18:23:17.685Z,98997.13
2022-08-17T18:25:47.487Z,99005.38
2022-08-17T18:28:25.212Z,99015.94
2022-08-17T18:31:12.465Z,99019.47
2022-08-17T18:33:41.503Z,99014.44
2022-08-17T18:36:10.887Z,99019.31
2022-08-17T18:38:42.606Z,99021.16
2022-08-17T18:41:24.351Z,99018.78
2022-08-17T18:44:01.535Z,99018.31
2022-08-17T18:46:33.224Z,99027.69
2022-08-17T18:49:05.298Z,99021.81
2022-08-17T18:51:42.397Z,99025.13
2022-08-17T18:54:16.157Z,99027.81
2022-08-17T18:56:45.301Z,99031.13
2022-08-17T18:59:18.261Z,99034.13
2022-08-17T19:02:10.266Z,99032.47
2022-08-17T19:04:42.649Z,99019.41
2022-08-17T19:07:25.180Z,99020.41
2022-08-17T19:09:55.247Z,99031.44
2022-08-17T19:12:27.315Z,99031.44
2022-08-17T19:14:56.343Z,99030.56
2022-08-17T19:17:27.096Z,99031.34
2022-08-17T19:19:56.473Z,99030.66
2022-08-17T19:22:29.161Z,99031.00
2022-08-17T19:25:03.537Z,99029.09
2022-08-17T19:27:41.982Z,99030.25
2022-08-17T19:30:17.785Z,99031.91
2022-08-17T19:32:48.104Z,99040.59
2022-08-17T19:35:24.625Z,99030.22
2022-08-17T19:37:56.728Z,99030.38
2022-08-17T19:40:51.239Z,99037.69
2022-08-17T19:43:20.798Z,99034.19
2022-08-17T19:45:51.432Z,99032.63
2022-08-17T19:48:25.034Z,99036.16
2022-08-17T19:50:55.143Z,99035.38
2022-08-17T19:53:41.741Z,99035.50
2022-08-17T19:56:16.834Z,99031.38
2022-08-17T19:58:49.171Z,99032.19
2022-08-17T20:01:21.045Z,99031.22
2022-08-17T20:03:55.068Z,99028.69
2022-08-17T20:06:23.493Z,99029.09
2022-08-17T20:08:55.142Z,99025.19
2022-08-17T20:11:25.108Z,99031.31
2022-08-17T20:13:56.298Z,99026.09
2022-08-17T20:16:24.841Z,99024.06
2022-08-17T20:18:59.697Z,99024.53
2022-08-17T20:21:33.063Z,99020.47
2022-08-17T20:24:03.033Z,99026.44
2022-08-17T20:26:36.269Z,99022.72
2022-08-17T20:29:09.905Z,99026.75
2022-08-17T20:31:44.687Z,99024.00
2022-08-17T20:34:34.855Z,99021.31
2022-08-17T20:37:07.866Z,99020.63
2022-08-17T20:39:38.863Z,99019.88
2022-08-17T20:42:12.585Z,99026.97
2022-08-17T20:44:41.729Z,99013.22
2022-08-17T20:47:11.744Z,99017.41
2022-08-17T20:49:47.233Z,99018.31
2022-08-17T20:52:18.402Z,99012.97
2022-08-17T20:54:48.506Z,99010.22
2022-08-17T20:57:44.337Z,99008.38
2022-08-17T21:00:16.612Z,99011.91
2022-08-17T21:02:45.868Z,99014.91
2022-08-17T21:05:35.664Z,99014.78
2022-08-17T21:08:16.103Z,99024.75
2022-08-17T21:10:46.536Z,99018.13
2022-08-17T21:13:34.876Z,99012.47
2022-08-17T21:16:06.341Z,99013.69
2022-08-17T21:18:38.653Z,99006.75
2022-08-17T21:21:15.412Z,99008.22
2022-08-17T21:23:59.575Z,99018.81
2022-08-17T21:26:31.054Z,99018.03
2022-08-17T21:29:29.775Z,99023.38
2022-08-17T21:32:19.884Z,99020.84
2022-08-17T21:35:12.350Z,99023.94
2022-08-17T21:37:41.987Z,99025.47
2022-08-17T21:40:22.937Z,99031.00
2022-08-17T21:42:52.774Z,99019.50
2022-08-17T21:45:22.337Z,99031.31
2022-08-17T21:47:51.050Z,99030.63
2022-08-17T21:50:20.585Z,99027.69
2022-08-17T21:52:49.633Z,99027.13
2022-08-17T21:55:28.186Z,99033.03
2022-08-17T21:58:14.178Z,99031.19
2022-08-17T22:00:44.331Z,99036.25
2022-08-17T22:03:23.632Z,99046.78
2022-08-17T22:05:52.002Z,99049.72
2022-08-17T22:08:22.301Z,99052.66
2022-08-17T22:10:52.471Z,99059.53
2022-08-17T22:13:21.608Z,99057.72
2022-08-17T22:15:50.778Z,99058.97
2022-08-17T22:18:20.302Z,99059.81
2022-08-17T22:20:50.813Z,99068.78
2022-08-17T22:23:40.928Z,99071.16
2022-08-17T22:26:13.330Z,99066.94
2022-08-17T22:28:43.284Z,99069.72
2022-08-17T22:31:14.555Z,99070.03
2022-08-17T22:33:44.501Z,99076.75
2022-08-17T22:36:24.633Z,99069.50
2022-08-17T22:38:53.934Z,99078.72
2022-08-17T22:41:43.803Z,99079.25
2022-08-17T22:44:31.642Z,99081.19
2022-08-17T22:47:03.035Z,99082.12
2022-08-17T22:49:33.523Z,99081.13
2022-08-17T22:52:03.498Z,99085.06
2022-08-17T22:54:49.279Z,99085.19
2022-08-17T22:57:35.210Z,99086.16
2022-08-17T23:00:03.737Z,99085.03
2022-08-17T23:02:34.396Z,99091.91
2022-08-17T23:05:24.076Z,99093.69
2022-08-17T23:07:53.232Z,99093.25
2022-08-17T23:10:21.576Z,99095.34
2022-08-17T23:12:50.843Z,99099.44
2022-08-17T23:15:19.691Z,99097.22
2022-08-17T23:17:49.410Z,99109.94
2022-08-17T23:20:17.910Z,99108.81
2022-08-17T23:22:51.431Z,99102.09
2022-08-17T23:25:24.807Z,99123.28
2022-08-17T23:27:53.694Z,99137.16
2022-08-17T23:30:30.443Z,99111.75
2022-08-17T23:33:01.220Z,99111.50
2022-08-17T23:35:40.097Z,99112.41
2022-08-17T23:38:10.128Z,99112.72
2022-08-17T23:40:39.603Z,99099.44
2022-08-17T23:45:57.535Z,99096.09
2022-08-17T23:48:32.528Z,99087.37
2022-08-17T23:51:08.795Z,99092.22
2022-08-17T23:53:37.355Z,99092.84
2022-08-17T23:56:10.302Z,99095.88
2022-08-17T23:58:39.515Z,99091.03
